sensor_id;sensor_type;location;lat;lon;timestamp;P1;durP1;ratioP1;P2;durP2;ratioP2
22939;SDS011;11636;52.086;5.090;2024-03-02T00:01:07;5.38;;;1.20;;
22939;SDS011;11636;52.086;5.090;2024-03-02T00:03:41;3.97;;;1.23;;
22939;SDS011;11636;52.086;5.090;2024-03-02T00:06:09;3.53;;;1.23;;
22939;SDS011;11636;52.086;5.090;2024-03-02T00:08:43;3.08;;;1.25;;
22939;SDS011;11636;52.086;5.090;2024-03-02T00:11:16;2.67;;;1.20;;
22939;SDS011;11636;52.086;5.090;2024-03-02T00:13:44;1.52;;;0.60;;
22939;SDS011;11636;52.086;5.090;2024-03-02T00:16:12;1.90;;;0.60;;
22939;SDS011;11636;52.086;5.090;2024-03-02T00:18:45;1.85;;;0.52;;
22939;SDS011;11636;52.086;5.090;2024-03-02T00:21:12;0.75;;;0.30;;
22939;SDS011;11636;52.086;5.090;2024-03-02T00:23:47;0.75;;;0.20;;
22939;SDS011;11636;52.086;5.090;2024-03-02T00:26:18;1.20;;;0.30;;
22939;SDS011;11636;52.086;5.090;2024-03-02T00:28:45;1.75;;;0.30;;
22939;SDS011;11636;52.086;5.090;2024-03-02T00:31:19;2.67;;;0.22;;
22939;SDS011;11636;52.086;5.090;2024-03-02T00:33:53;0.85;;;0.17;;
22939;SDS011;11636;52.086;5.090;2024-03-02T00:36:26;0.75;;;0.20;;
22939;SDS011;11636;52.086;5.090;2024-03-02T00:39:00;0.82;;;0.30;;
22939;SDS011;11636;52.086;5.090;2024-03-02T00:41:34;1.48;;;0.20;;
22939;SDS011;11636;52.086;5.090;2024-03-02T00:44:05;0.70;;;0.20;;
22939;SDS011;11636;52.086;5.090;2024-03-02T00:46:40;3.33;;;0.20;;
22939;SDS011;11636;52.086;5.090;2024-03-02T00:49:22;0.55;;;0.13;;
22939;SDS011;11636;52.086;5.090;2024-03-02T00:51:51;1.65;;;0.30;;
22939;SDS011;11636;52.086;5.090;2024-03-02T00:54:25;1.20;;;0.30;;
22939;SDS011;11636;52.086;5.090;2024-03-02T00:56:54;1.63;;;0.40;;
22939;SDS011;11636;52.086;5.090;2024-03-02T00:59:28;0.75;;;0.20;;
22939;SDS011;11636;52.086;5.090;2024-03-02T01:02:02;0.80;;;0.20;;
22939;SDS011;11636;52.086;5.090;2024-03-02T01:04:29;0.80;;;0.28;;
22939;SDS011;11636;52.086;5.090;2024-03-02T01:06:56;0.68;;;0.22;;
22939;SDS011;11636;52.086;5.090;2024-03-02T01:09:31;1.95;;;0.47;;
22939;SDS011;11636;52.086;5.090;2024-03-02T01:12:04;1.10;;;0.30;;
22939;SDS011;11636;52.086;5.090;2024-03-02T01:14:31;0.80;;;0.28;;
22939;SDS011;11636;52.086;5.090;2024-03-02T01:17:05;0.73;;;0.22;;
22939;SDS011;11636;52.086;5.090;2024-03-02T01:19:32;0.73;;;0.17;;
22939;SDS011;11636;52.086;5.090;2024-03-02T01:21:59;1.42;;;0.30;;
22939;SDS011;11636;52.086;5.090;2024-03-02T01:24:32;1.23;;;0.30;;
22939;SDS011;11636;52.086;5.090;2024-03-02T01:26:59;0.88;;;0.40;;
22939;SDS011;11636;52.086;5.090;2024-03-02T01:29:32;0.80;;;0.30;;
22939;SDS011;11636;52.086;5.090;2024-03-02T01:32:05;0.65;;;0.22;;
22939;SDS011;11636;52.086;5.090;2024-03-02T01:34:32;0.82;;;0.25;;
22939;SDS011;11636;52.086;5.090;2024-03-02T01:36:59;1.15;;;0.30;;
22939;SDS011;11636;52.086;5.090;2024-03-02T01:39:32;0.70;;;0.30;;
22939;SDS011;11636;52.086;5.090;2024-03-02T01:41:59;0.80;;;0.32;;
22939;SDS011;11636;52.086;5.090;2024-03-02T01:44:32;1.92;;;0.50;;
22939;SDS011;11636;52.086;5.090;2024-03-02T01:46:59;2.22;;;0.50;;
22939;SDS011;11636;52.086;5.090;2024-03-02T01:49:32;1.08;;;0.40;;
22939;SDS011;11636;52.086;5.090;2024-03-02T01:52:06;1.52;;;0.40;;
22939;SDS011;11636;52.086;5.090;2024-03-02T01:54:33;1.58;;;0.45;;
22939;SDS011;11636;52.086;5.090;2024-03-02T01:57:00;2.17;;;0.40;;
22939;SDS011;11636;52.086;5.090;2024-03-02T01:59:34;1.25;;;0.40;;
22939;SDS011;11636;52.086;5.090;2024-03-02T02:02:07;1.58;;;0.50;;
22939;SDS011;11636;52.086;5.090;2024-03-02T02:04:34;1.65;;;0.50;;
22939;SDS011;11636;52.086;5.090;2024-03-02T02:07:01;1.73;;;0.43;;
22939;SDS011;11636;52.086;5.090;2024-03-02T02:09:34;0.95;;;0.40;;
22939;SDS011;11636;52.086;5.090;2024-03-02T02:12:02;1.33;;;0.30;;
22939;SDS011;11636;52.086;5.090;2024-03-02T02:14:31;1.33;;;0.40;;
22939;SDS011;11636;52.086;5.090;2024-03-02T02:17:04;1.02;;;0.28;;
22939;SDS011;11636;52.086;5.090;2024-03-02T02:19:37;0.90;;;0.30;;
22939;SDS011;11636;52.086;5.090;2024-03-02T02:22:12;0.75;;;0.30;;
22939;SDS011;11636;52.086;5.090;2024-03-02T02:24:40;2.10;;;0.57;;
22939;SDS011;11636;52.086;5.090;2024-03-02T02:27:14;2.05;;;0.50;;
22939;SDS011;11636;52.086;5.090;2024-03-02T02:29:41;2.58;;;0.60;;
22939;SDS011;11636;52.086;5.090;2024-03-02T02:32:08;1.92;;;0.60;;
22939;SDS011;11636;52.086;5.090;2024-03-02T02:34:52;1.88;;;0.70;;
22939;SDS011;11636;52.086;5.090;2024-03-02T02:37:25;2.38;;;0.60;;
22939;SDS011;11636;52.086;5.090;2024-03-02T02:39:52;2.22;;;0.80;;
22939;SDS011;11636;52.086;5.090;2024-03-02T02:42:19;1.73;;;0.60;;
22939;SDS011;11636;52.086;5.090;2024-03-02T02:44:52;1.50;;;0.50;;
22939;SDS011;11636;52.086;5.090;2024-03-02T02:47:19;1.23;;;0.43;;
22939;SDS011;11636;52.086;5.090;2024-03-02T02:49:52;1.70;;;0.70;;
22939;SDS011;11636;52.086;5.090;2024-03-02T02:52:19;1.02;;;0.40;;
22939;SDS011;11636;52.086;5.090;2024-03-02T02:54:53;1.85;;;0.60;;
22939;SDS011;11636;52.086;5.090;2024-03-02T02:57:26;2.03;;;0.60;;
22939;SDS011;11636;52.086;5.090;2024-03-02T02:59:54;1.50;;;0.50;;
22939;SDS011;11636;52.086;5.090;2024-03-02T03:02:28;1.35;;;0.40;;
22939;SDS011;11636;52.086;5.090;2024-03-02T03:04:55;1.35;;;0.60;;
22939;SDS011;11636;52.086;5.090;2024-03-02T03:07:29;1.50;;;0.50;;
22939;SDS011;11636;52.086;5.090;2024-03-02T03:09:56;1.13;;;0.40;;
22939;SDS011;11636;52.086;5.090;2024-03-02T03:12:32;2.70;;;0.60;;
22939;SDS011;11636;52.086;5.090;2024-03-02T03:14:59;1.77;;;0.40;;
22939;SDS011;11636;52.086;5.090;2024-03-02T03:17:26;1.00;;;0.38;;
22939;SDS011;11636;52.086;5.090;2024-03-02T03:20:01;1.45;;;0.30;;
22939;SDS011;11636;52.086;5.090;2024-03-02T03:22:30;1.33;;;0.47;;
22939;SDS011;11636;52.086;5.090;2024-03-02T03:25:07;1.40;;;0.30;;
22939;SDS011;11636;52.086;5.090;2024-03-02T03:27:35;1.15;;;0.40;;
22939;SDS011;11636;52.086;5.090;2024-03-02T03:30:08;0.63;;;0.20;;
22939;SDS011;11636;52.086;5.090;2024-03-02T03:32:42;1.23;;;0.38;;
22939;SDS011;11636;52.086;5.090;2024-03-02T03:35:09;1.33;;;0.45;;
22939;SDS011;11636;52.086;5.090;2024-03-02T03:37:36;1.05;;;0.38;;
22939;SDS011;11636;52.086;5.090;2024-03-02T03:40:09;1.48;;;0.50;;
22939;SDS011;11636;52.086;5.090;2024-03-02T03:42:37;1.77;;;0.45;;
22939;SDS011;11636;52.086;5.090;2024-03-02T03:45:11;2.13;;;0.47;;
22939;SDS011;11636;52.086;5.090;2024-03-02T03:47:44;2.83;;;0.43;;
22939;SDS011;11636;52.086;5.090;2024-03-02T03:50:11;1.10;;;0.30;;
22939;SDS011;11636;52.086;5.090;2024-03-02T03:52:44;1.60;;;0.30;;
22939;SDS011;11636;52.086;5.090;2024-03-02T03:55:11;1.42;;;0.35;;
22939;SDS011;11636;52.086;5.090;2024-03-02T03:57:44;1.48;;;0.40;;
22939;SDS011;11636;52.086;5.090;2024-03-02T04:00:11;1.10;;;0.30;;
22939;SDS011;11636;52.086;5.090;2024-03-02T04:02:38;1.45;;;0.45;;
22939;SDS011;11636;52.086;5.090;2024-03-02T04:05:12;0.70;;;0.30;;
22939;SDS011;11636;52.086;5.090;2024-03-02T04:07:39;1.40;;;0.40;;
22939;SDS011;11636;52.086;5.090;2024-03-02T04:10:12;1.40;;;0.32;;
22939;SDS011;11636;52.086;5.090;2024-03-02T04:12:39;1.08;;;0.22;;
22939;SDS011;11636;52.086;5.090;2024-03-02T04:15:19;1.65;;;0.38;;
22939;SDS011;11636;52.086;5.090;2024-03-02T04:17:52;1.35;;;0.40;;
22939;SDS011;11636;52.086;5.090;2024-03-02T04:20:25;0.85;;;0.30;;
22939;SDS011;11636;52.086;5.090;2024-03-02T04:22:52;1.08;;;0.30;;
22939;SDS011;11636;52.086;5.090;2024-03-02T04:25:25;1.80;;;0.43;;
22939;SDS011;11636;52.086;5.090;2024-03-02T04:27:52;1.10;;;0.30;;
22939;SDS011;11636;52.086;5.090;2024-03-02T04:30:26;1.65;;;0.47;;
22939;SDS011;11636;52.086;5.090;2024-03-02T04:32:53;1.35;;;0.40;;
22939;SDS011;11636;52.086;5.090;2024-03-02T04:35:26;1.00;;;0.40;;
22939;SDS011;11636;52.086;5.090;2024-03-02T04:37:53;1.60;;;0.50;;
22939;SDS011;11636;52.086;5.090;2024-03-02T04:40:20;1.60;;;0.40;;
22939;SDS011;11636;52.086;5.090;2024-03-02T04:42:53;1.33;;;0.40;;
22939;SDS011;11636;52.086;5.090;2024-03-02T04:45:20;1.60;;;0.40;;
22939;SDS011;11636;52.086;5.090;2024-03-02T04:47:53;1.45;;;0.20;;
22939;SDS011;11636;52.086;5.090;2024-03-02T04:50:20;1.02;;;0.30;;
22939;SDS011;11636;52.086;5.090;2024-03-02T04:52:47;0.90;;;0.38;;
22939;SDS011;11636;52.086;5.090;2024-03-02T04:55:20;1.70;;;0.30;;
22939;SDS011;11636;52.086;5.090;2024-03-02T04:57:59;0.90;;;0.30;;
22939;SDS011;11636;52.086;5.090;2024-03-02T05:00:26;1.35;;;0.40;;
22939;SDS011;11636;52.086;5.090;2024-03-02T05:02:53;0.95;;;0.32;;
22939;SDS011;11636;52.086;5.090;2024-03-02T05:05:26;1.15;;;0.40;;
22939;SDS011;11636;52.086;5.090;2024-03-02T05:07:53;1.42;;;0.40;;
22939;SDS011;11636;52.086;5.090;2024-03-02T05:10:26;1.60;;;0.50;;
22939;SDS011;11636;52.086;5.090;2024-03-02T05:12:53;1.25;;;0.40;;
22939;SDS011;11636;52.086;5.090;2024-03-02T05:15:32;0.80;;;0.30;;
22939;SDS011;11636;52.086;5.090;2024-03-02T05:18:04;1.10;;;0.30;;
22939;SDS011;11636;52.086;5.090;2024-03-02T05:20:37;1.00;;;0.35;;
22939;SDS011;11636;52.086;5.090;2024-03-02T05:23:04;1.42;;;0.45;;
22939;SDS011;11636;52.086;5.090;2024-03-02T05:25:38;1.40;;;0.50;;
22939;SDS011;11636;52.086;5.090;2024-03-02T05:28:11;1.15;;;0.40;;
22939;SDS011;11636;52.086;5.090;2024-03-02T05:30:38;1.20;;;0.40;;
22939;SDS011;11636;52.086;5.090;2024-03-02T05:33:05;0.88;;;0.30;;
22939;SDS011;11636;52.086;5.090;2024-03-02T05:35:39;1.77;;;0.50;;
22939;SDS011;11636;52.086;5.090;2024-03-02T05:38:06;1.60;;;0.47;;
22939;SDS011;11636;52.086;5.090;2024-03-02T05:40:39;1.52;;;0.30;;
22939;SDS011;11636;52.086;5.090;2024-03-02T05:43:12;1.50;;;0.45;;
22939;SDS011;11636;52.086;5.090;2024-03-02T05:45:45;1.25;;;0.40;;
22939;SDS011;11636;52.086;5.090;2024-03-02T05:48:12;1.70;;;0.40;;
22939;SDS011;11636;52.086;5.090;2024-03-02T05:50:39;1.80;;;0.30;;
22939;SDS011;11636;52.086;5.090;2024-03-02T05:53:12;1.10;;;0.30;;
22939;SDS011;11636;52.086;5.090;2024-03-02T05:55:39;1.77;;;0.40;;
22939;SDS011;11636;52.086;5.090;2024-03-02T05:58:12;1.60;;;0.40;;
22939;SDS011;11636;52.086;5.090;2024-03-02T06:01:18;2.15;;;0.30;;
22939;SDS011;11636;52.086;5.090;2024-03-02T06:03:52;1.30;;;0.50;;
22939;SDS011;11636;52.086;5.090;2024-03-02T06:06:18;1.00;;;0.28;;
22939;SDS011;11636;52.086;5.090;2024-03-02T06:08:45;1.70;;;0.40;;
22939;SDS011;11636;52.086;5.090;2024-03-02T06:11:19;2.25;;;0.35;;
22939;SDS011;11636;52.086;5.090;2024-03-02T06:13:46;1.00;;;0.30;;
22939;SDS011;11636;52.086;5.090;2024-03-02T06:16:19;2.25;;;0.43;;
22939;SDS011;11636;52.086;5.090;2024-03-02T06:18:46;0.90;;;0.30;;
22939;SDS011;11636;52.086;5.090;2024-03-02T06:21:20;1.10;;;0.30;;
22939;SDS011;11636;52.086;5.090;2024-03-02T06:23:46;1.23;;;0.30;;
22939;SDS011;11636;52.086;5.090;2024-03-02T06:26:20;0.75;;;0.30;;
22939;SDS011;11636;52.086;5.090;2024-03-02T06:28:57;0.98;;;0.20;;
22939;SDS011;11636;52.086;5.090;2024-03-02T06:31:31;0.77;;;0.30;;
22939;SDS011;11636;52.086;5.090;2024-03-02T06:33:58;0.57;;;0.20;;
22939;SDS011;11636;52.086;5.090;2024-03-02T06:36:31;1.25;;;0.40;;
22939;SDS011;11636;52.086;5.090;2024-03-02T06:38:58;2.15;;;0.40;;
22939;SDS011;11636;52.086;5.090;2024-03-02T06:41:31;1.42;;;0.52;;
22939;SDS011;11636;52.086;5.090;2024-03-02T06:43:57;1.73;;;0.30;;
22939;SDS011;11636;52.086;5.090;2024-03-02T06:46:34;2.38;;;0.45;;
22939;SDS011;11636;52.086;5.090;2024-03-02T06:49:00;1.92;;;0.40;;
22939;SDS011;11636;52.086;5.090;2024-03-02T06:51:29;2.45;;;0.57;;
22939;SDS011;11636;52.086;5.090;2024-03-02T06:54:02;1.88;;;0.50;;
22939;SDS011;11636;52.086;5.090;2024-03-02T06:56:28;2.90;;;0.80;;
22939;SDS011;11636;52.086;5.090;2024-03-02T06:59:03;1.25;;;0.32;;
22939;SDS011;11636;52.086;5.090;2024-03-02T07:01:29;1.63;;;0.30;;
22939;SDS011;11636;52.086;5.090;2024-03-02T07:04:03;2.05;;;0.50;;
22939;SDS011;11636;52.086;5.090;2024-03-02T07:06:33;1.50;;;0.40;;
22939;SDS011;11636;52.086;5.090;2024-03-02T07:09:06;0.90;;;0.30;;
22939;SDS011;11636;52.086;5.090;2024-03-02T07:11:37;2.20;;;0.57;;
22939;SDS011;11636;52.086;5.090;2024-03-02T07:14:03;2.03;;;0.50;;
22939;SDS011;11636;52.086;5.090;2024-03-02T07:16:37;1.95;;;0.60;;
22939;SDS011;11636;52.086;5.090;2024-03-02T07:19:07;2.40;;;0.50;;
22939;SDS011;11636;52.086;5.090;2024-03-02T07:21:40;2.03;;;0.50;;
22939;SDS011;11636;52.086;5.090;2024-03-02T07:24:15;1.30;;;0.30;;
22939;SDS011;11636;52.086;5.090;2024-03-02T07:26:49;1.25;;;0.40;;
22939;SDS011;11636;52.086;5.090;2024-03-02T07:29:22;1.85;;;0.52;;
22939;SDS011;11636;52.086;5.090;2024-03-02T07:31:55;1.55;;;0.55;;
22939;SDS011;11636;52.086;5.090;2024-03-02T07:34:21;1.63;;;0.52;;
22939;SDS011;11636;52.086;5.090;2024-03-02T07:36:55;2.50;;;0.40;;
22939;SDS011;11636;52.086;5.090;2024-03-02T07:39:22;2.97;;;0.60;;
22939;SDS011;11636;52.086;5.090;2024-03-02T07:41:56;3.50;;;0.70;;
22939;SDS011;11636;52.086;5.090;2024-03-02T07:44:23;1.50;;;0.40;;
22939;SDS011;11636;52.086;5.090;2024-03-02T07:46:57;2.20;;;0.50;;
22939;SDS011;11636;52.086;5.090;2024-03-02T07:49:30;4.45;;;0.63;;
22939;SDS011;11636;52.086;5.090;2024-03-02T07:51:56;3.15;;;0.60;;
22939;SDS011;11636;52.086;5.090;2024-03-02T07:54:30;2.40;;;0.63;;
22939;SDS011;11636;52.086;5.090;2024-03-02T07:56:56;2.33;;;0.57;;
22939;SDS011;11636;52.086;5.090;2024-03-02T07:59:24;2.22;;;0.60;;
22939;SDS011;11636;52.086;5.090;2024-03-02T08:01:57;2.55;;;0.50;;
22939;SDS011;11636;52.086;5.090;2024-03-02T08:04:24;1.23;;;0.50;;
22939;SDS011;11636;52.086;5.090;2024-03-02T08:06:58;2.03;;;0.70;;
22939;SDS011;11636;52.086;5.090;2024-03-02T08:09:31;3.08;;;0.60;;
22939;SDS011;11636;52.086;5.090;2024-03-02T08:12:04;2.10;;;0.60;;
22939;SDS011;11636;52.086;5.090;2024-03-02T08:14:31;1.58;;;0.40;;
22939;SDS011;11636;52.086;5.090;2024-03-02T08:16:58;3.65;;;0.55;;
22939;SDS011;11636;52.086;5.090;2024-03-02T08:19:31;3.85;;;0.60;;
22939;SDS011;11636;52.086;5.090;2024-03-02T08:21:57;3.28;;;0.63;;
22939;SDS011;11636;52.086;5.090;2024-03-02T08:24:26;2.35;;;0.50;;
22939;SDS011;11636;52.086;5.090;2024-03-02T08:26:59;4.28;;;0.60;;
22939;SDS011;11636;52.086;5.090;2024-03-02T08:29:26;1.90;;;0.52;;
22939;SDS011;11636;52.086;5.090;2024-03-02T08:32:00;2.67;;;0.55;;
22939;SDS011;11636;52.086;5.090;2024-03-02T08:34:27;3.45;;;0.60;;
22939;SDS011;11636;52.086;5.090;2024-03-02T08:36:54;2.78;;;0.50;;
22939;SDS011;11636;52.086;5.090;2024-03-02T08:39:27;3.38;;;0.47;;
22939;SDS011;11636;52.086;5.090;2024-03-02T08:41:54;3.20;;;0.63;;
22939;SDS011;11636;52.086;5.090;2024-03-02T08:44:21;4.65;;;0.80;;
22939;SDS011;11636;52.086;5.090;2024-03-02T08:46:55;2.30;;;0.38;;
22939;SDS011;11636;52.086;5.090;2024-03-02T08:49:29;3.95;;;0.70;;
22939;SDS011;11636;52.086;5.090;2024-03-02T08:51:56;2.50;;;0.73;;
22939;SDS011;11636;52.086;5.090;2024-03-02T08:54:29;3.40;;;0.70;;
22939;SDS011;11636;52.086;5.090;2024-03-02T08:57:03;4.82;;;0.60;;
22939;SDS011;11636;52.086;5.090;2024-03-02T08:59:37;3.80;;;0.80;;
22939;SDS011;11636;52.086;5.090;2024-03-02T09:02:10;1.45;;;0.30;;
22939;SDS011;11636;52.086;5.090;2024-03-02T09:04:37;4.30;;;0.73;;
22939;SDS011;11636;52.086;5.090;2024-03-02T09:07:11;3.58;;;0.90;;
22939;SDS011;11636;52.086;5.090;2024-03-02T09:09:44;2.22;;;0.43;;
22939;SDS011;11636;52.086;5.090;2024-03-02T09:12:11;1.75;;;0.40;;
22939;SDS011;11636;52.086;5.090;2024-03-02T09:14:37;2.85;;;0.73;;
22939;SDS011;11636;52.086;5.090;2024-03-02T09:17:11;5.00;;;0.90;;
22939;SDS011;11636;52.086;5.090;2024-03-02T09:19:38;3.05;;;0.73;;
22939;SDS011;11636;52.086;5.090;2024-03-02T09:22:12;4.68;;;0.85;;
22939;SDS011;11636;52.086;5.090;2024-03-02T09:24:39;3.22;;;0.60;;
22939;SDS011;11636;52.086;5.090;2024-03-02T09:27:13;7.18;;;0.98;;
22939;SDS011;11636;52.086;5.090;2024-03-02T09:29:46;4.45;;;1.00;;
22939;SDS011;11636;52.086;5.090;2024-03-02T09:32:13;5.82;;;0.95;;
22939;SDS011;11636;52.086;5.090;2024-03-02T09:34:47;5.97;;;0.88;;
22939;SDS011;11636;52.086;5.090;2024-03-02T09:37:14;2.85;;;0.80;;
22939;SDS011;11636;52.086;5.090;2024-03-02T09:39:48;2.90;;;0.60;;
22939;SDS011;11636;52.086;5.090;2024-03-02T09:42:21;4.70;;;1.02;;
22939;SDS011;11636;52.086;5.090;2024-03-02T09:44:50;6.07;;;1.08;;
22939;SDS011;11636;52.086;5.090;2024-03-02T09:47:23;4.25;;;0.90;;
22939;SDS011;11636;52.086;5.090;2024-03-02T09:49:50;4.25;;;0.98;;
22939;SDS011;11636;52.086;5.090;2024-03-02T09:52:24;4.93;;;0.80;;
22939;SDS011;11636;52.086;5.090;2024-03-02T09:54:58;3.05;;;0.70;;
22939;SDS011;11636;52.086;5.090;2024-03-02T09:57:25;5.00;;;0.73;;
22939;SDS011;11636;52.086;5.090;2024-03-02T09:59:52;5.57;;;1.20;;
22939;SDS011;11636;52.086;5.090;2024-03-02T10:02:26;3.90;;;0.80;;
22939;SDS011;11636;52.086;5.090;2024-03-02T10:04:53;4.47;;;0.98;;
22939;SDS011;11636;52.086;5.090;2024-03-02T10:07:26;7.00;;;0.95;;
22939;SDS011;11636;52.086;5.090;2024-03-02T10:10:12;6.18;;;0.93;;
22939;SDS011;11636;52.086;5.090;2024-03-02T10:12:46;5.25;;;1.02;;
22939;SDS011;11636;52.086;5.090;2024-03-02T10:15:23;6.10;;;0.70;;
22939;SDS011;11636;52.086;5.090;2024-03-02T10:17:57;6.28;;;1.02;;
22939;SDS011;11636;52.086;5.090;2024-03-02T10:20:27;5.05;;;0.80;;
22939;SDS011;11636;52.086;5.090;2024-03-02T10:23:12;3.97;;;0.75;;
22939;SDS011;11636;52.086;5.090;2024-03-02T10:25:43;3.47;;;0.70;;
22939;SDS011;11636;52.086;5.090;2024-03-02T10:28:23;2.53;;;0.52;;
22939;SDS011;11636;52.086;5.090;2024-03-02T10:30:51;5.35;;;0.63;;
22939;SDS011;11636;52.086;5.090;2024-03-02T10:33:25;4.32;;;0.70;;
22939;SDS011;11636;52.086;5.090;2024-03-02T10:35:52;5.22;;;0.88;;
22939;SDS011;11636;52.086;5.090;2024-03-02T10:38:26;6.18;;;0.80;;
22939;SDS011;11636;52.086;5.090;2024-03-02T10:40:53;4.70;;;1.05;;
22939;SDS011;11636;52.086;5.090;2024-03-02T10:43:21;3.88;;;0.60;;
22939;SDS011;11636;52.086;5.090;2024-03-02T10:45:55;6.63;;;0.70;;
22939;SDS011;11636;52.086;5.090;2024-03-02T10:48:24;4.28;;;0.70;;
22939;SDS011;11636;52.086;5.090;2024-03-02T10:50:59;4.97;;;1.02;;
22939;SDS011;11636;52.086;5.090;2024-03-02T10:53:34;6.32;;;1.00;;
22939;SDS011;11636;52.086;5.090;2024-03-02T10:56:01;5.72;;;0.90;;
22939;SDS011;11636;52.086;5.090;2024-03-02T10:58:31;5.28;;;1.10;;
22939;SDS011;11636;52.086;5.090;2024-03-02T11:01:08;4.18;;;0.80;;
22939;SDS011;11636;52.086;5.090;2024-03-02T11:03:37;3.38;;;0.70;;
22939;SDS011;11636;52.086;5.090;2024-03-02T11:06:12;4.13;;;0.85;;
22939;SDS011;11636;52.086;5.090;2024-03-02T11:08:46;3.08;;;0.73;;
22939;SDS011;11636;52.086;5.090;2024-03-02T11:11:18;3.40;;;0.70;;
22939;SDS011;11636;52.086;5.090;2024-03-02T11:13:58;2.45;;;0.60;;
22939;SDS011;11636;52.086;5.090;2024-03-02T11:16:35;6.50;;;0.93;;
22939;SDS011;11636;52.086;5.090;2024-03-02T11:19:13;3.53;;;0.88;;
22939;SDS011;11636;52.086;5.090;2024-03-02T11:21:43;3.10;;;0.77;;
22939;SDS011;11636;52.086;5.090;2024-03-02T11:26:57;4.47;;;0.90;;
22939;SDS011;11636;52.086;5.090;2024-03-02T11:32:02;3.05;;;0.60;;
22939;SDS011;11636;52.086;5.090;2024-03-02T11:34:36;4.35;;;0.73;;
22939;SDS011;11636;52.086;5.090;2024-03-02T11:37:12;2.17;;;0.60;;
22939;SDS011;11636;52.086;5.090;2024-03-02T11:39:46;3.35;;;0.60;;
22939;SDS011;11636;52.086;5.090;2024-03-02T11:42:21;3.58;;;0.65;;
22939;SDS011;11636;52.086;5.090;2024-03-02T11:44:55;2.72;;;0.57;;
22939;SDS011;11636;52.086;5.090;2024-03-02T11:47:23;2.05;;;0.60;;
22939;SDS011;11636;52.086;5.090;2024-03-02T11:49:57;2.78;;;0.60;;
22939;SDS011;11636;52.086;5.090;2024-03-02T11:52:25;2.72;;;0.80;;
22939;SDS011;11636;52.086;5.090;2024-03-02T11:54:59;4.10;;;0.95;;
22939;SDS011;11636;52.086;5.090;2024-03-02T11:57:44;5.82;;;0.80;;
22939;SDS011;11636;52.086;5.090;2024-03-02T12:00:17;4.40;;;0.68;;
22939;SDS011;11636;52.086;5.090;2024-03-02T12:03:03;3.90;;;0.77;;
22939;SDS011;11636;52.086;5.090;2024-03-02T12:05:41;3.67;;;0.65;;
22939;SDS011;11636;52.086;5.090;2024-03-02T12:08:15;3.00;;;0.70;;
22939;SDS011;11636;52.086;5.090;2024-03-02T12:10:59;3.28;;;0.80;;
22939;SDS011;11636;52.086;5.090;2024-03-02T12:13:29;5.63;;;0.93;;
22939;SDS011;11636;52.086;5.090;2024-03-02T12:16:03;4.18;;;0.80;;
22939;SDS011;11636;52.086;5.090;2024-03-02T12:18:31;3.83;;;0.90;;
22939;SDS011;11636;52.086;5.090;2024-03-02T12:20:58;4.18;;;0.88;;
22939;SDS011;11636;52.086;5.090;2024-03-02T12:23:31;4.20;;;0.80;;
22939;SDS011;11636;52.086;5.090;2024-03-02T12:25:58;4.68;;;0.90;;
22939;SDS011;11636;52.086;5.090;2024-03-02T12:28:25;4.30;;;0.75;;
22939;SDS011;11636;52.086;5.090;2024-03-02T12:31:00;3.22;;;0.70;;
22939;SDS011;11636;52.086;5.090;2024-03-02T12:33:33;5.05;;;0.90;;
22939;SDS011;11636;52.086;5.090;2024-03-02T12:36:00;3.65;;;0.93;;
22939;SDS011;11636;52.086;5.090;2024-03-02T12:38:35;4.22;;;0.77;;
22939;SDS011;11636;52.086;5.090;2024-03-02T12:41:02;4.88;;;0.95;;
22939;SDS011;11636;52.086;5.090;2024-03-02T12:43:38;2.92;;;0.60;;
22939;SDS011;11636;52.086;5.090;2024-03-02T12:46:11;3.13;;;0.73;;
22939;SDS011;11636;52.086;5.090;2024-03-02T12:48:38;4.63;;;0.95;;
22939;SDS011;11636;52.086;5.090;2024-03-02T12:51:20;3.42;;;0.85;;
22939;SDS011;11636;52.086;5.090;2024-03-02T12:53:54;3.63;;;1.10;;
22939;SDS011;11636;52.086;5.090;2024-03-02T12:56:29;3.60;;;0.90;;
22939;SDS011;11636;52.086;5.090;2024-03-02T12:58:56;5.53;;;1.00;;
22939;SDS011;11636;52.086;5.090;2024-03-02T13:01:30;3.13;;;0.70;;
22939;SDS011;11636;52.086;5.090;2024-03-02T13:03:58;6.03;;;0.90;;
22939;SDS011;11636;52.086;5.090;2024-03-02T13:06:32;4.10;;;1.15;;
22939;SDS011;11636;52.086;5.090;2024-03-02T13:09:06;3.72;;;1.00;;
22939;SDS011;11636;52.086;5.090;2024-03-02T13:11:42;3.78;;;0.95;;
22939;SDS011;11636;52.086;5.090;2024-03-02T13:14:16;3.20;;;0.82;;
22939;SDS011;11636;52.086;5.090;2024-03-02T13:16:49;3.72;;;0.82;;
22939;SDS011;11636;52.086;5.090;2024-03-02T13:19:25;3.13;;;0.73;;
22939;SDS011;11636;52.086;5.090;2024-03-02T13:21:55;4.22;;;0.85;;
22939;SDS011;11636;52.086;5.090;2024-03-02T13:24:21;4.03;;;0.98;;
22939;SDS011;11636;52.086;5.090;2024-03-02T13:26:58;4.15;;;0.63;;
22939;SDS011;11636;52.086;5.090;2024-03-02T13:29:32;2.40;;;0.68;;
22939;SDS011;11636;52.086;5.090;2024-03-02T13:31:59;3.03;;;0.77;;
22939;SDS011;11636;52.086;5.090;2024-03-02T13:34:33;4.45;;;0.90;;
22939;SDS011;11636;52.086;5.090;2024-03-02T13:37:00;4.18;;;0.75;;
22939;SDS011;11636;52.086;5.090;2024-03-02T13:39:35;4.95;;;0.85;;
22939;SDS011;11636;52.086;5.090;2024-03-02T13:42:07;5.30;;;1.15;;
22939;SDS011;11636;52.086;5.090;2024-03-02T13:44:46;3.90;;;0.90;;
22939;SDS011;11636;52.086;5.090;2024-03-02T13:47:16;4.43;;;0.80;;
22939;SDS011;11636;52.086;5.090;2024-03-02T13:49:49;3.78;;;0.80;;
22939;SDS011;11636;52.086;5.090;2024-03-02T13:52:16;4.88;;;0.90;;
22939;SDS011;11636;52.086;5.090;2024-03-02T13:54:49;5.07;;;0.93;;
22939;SDS011;11636;52.086;5.090;2024-03-02T13:57:18;1.95;;;0.40;;
22939;SDS011;11636;52.086;5.090;2024-03-02T13:59:52;4.05;;;0.70;;
22939;SDS011;11636;52.086;5.090;2024-03-02T14:02:20;2.47;;;0.50;;
22939;SDS011;11636;52.086;5.090;2024-03-02T14:04:53;4.13;;;0.90;;
22939;SDS011;11636;52.086;5.090;2024-03-02T14:07:20;4.47;;;0.95;;
22939;SDS011;11636;52.086;5.090;2024-03-02T14:09:53;4.18;;;0.90;;
22939;SDS011;11636;52.086;5.090;2024-03-02T14:12:26;4.70;;;1.27;;
22939;SDS011;11636;52.086;5.090;2024-03-02T14:14:53;4.00;;;0.90;;
22939;SDS011;11636;52.086;5.090;2024-03-02T14:17:30;4.90;;;0.82;;
22939;SDS011;11636;52.086;5.090;2024-03-02T14:20:00;3.40;;;0.75;;
22939;SDS011;11636;52.086;5.090;2024-03-02T14:22:27;2.92;;;0.60;;
22939;SDS011;11636;52.086;5.090;2024-03-02T14:25:00;7.45;;;1.13;;
22939;SDS011;11636;52.086;5.090;2024-03-02T14:27:27;3.58;;;0.85;;
22939;SDS011;11636;52.086;5.090;2024-03-02T14:30:21;4.25;;;1.13;;
22939;SDS011;11636;52.086;5.090;2024-03-02T14:32:48;4.07;;;1.00;;
22939;SDS011;11636;52.086;5.090;2024-03-02T14:35:21;4.43;;;1.23;;
22939;SDS011;11636;52.086;5.090;2024-03-02T14:37:55;4.97;;;1.38;;
22939;SDS011;11636;52.086;5.090;2024-03-02T14:40:24;3.33;;;1.08;;
22939;SDS011;11636;52.086;5.090;2024-03-02T14:42:59;4.20;;;0.95;;
22939;SDS011;11636;52.086;5.090;2024-03-02T14:45:32;3.53;;;0.95;;
22939;SDS011;11636;52.086;5.090;2024-03-02T14:47:59;3.10;;;1.00;;
22939;SDS011;11636;52.086;5.090;2024-03-02T14:50:32;4.20;;;1.30;;
22939;SDS011;11636;52.086;5.090;2024-03-02T14:53:06;5.43;;;1.60;;
22939;SDS011;11636;52.086;5.090;2024-03-02T14:55:34;4.95;;;1.20;;
22939;SDS011;11636;52.086;5.090;2024-03-02T14:58:07;4.35;;;1.00;;
22939;SDS011;11636;52.086;5.090;2024-03-02T15:00:34;3.03;;;0.93;;
22939;SDS011;11636;52.086;5.090;2024-03-02T15:03:08;4.15;;;1.00;;
22939;SDS011;11636;52.086;5.090;2024-03-02T15:05:35;3.38;;;1.20;;
22939;SDS011;11636;52.086;5.090;2024-03-02T15:08:02;3.33;;;0.98;;
22939;SDS011;11636;52.086;5.090;2024-03-02T15:10:38;4.13;;;0.90;;
22939;SDS011;11636;52.086;5.090;2024-03-02T15:13:06;3.35;;;1.00;;
22939;SDS011;11636;52.086;5.090;2024-03-02T15:15:40;2.05;;;0.63;;
22939;SDS011;11636;52.086;5.090;2024-03-02T15:18:07;3.38;;;0.70;;